Bureau Of Census, PR

4:53 AM AST on August 30, 2014 (GMT -0400)
Reparto Metropolitano | Change Station
CLOSE
Current Station
Personal Weather Station
Location: San Juan, PR
Elevation: 36 ft
Nearby Weather Stations

Elev 36 ft 18.40 °N, 66.08 °W | Updated 1 minute ago

Clear
Clear
77.2 °F
Feels Like 75 °F
N
0.0
Wind Variable Wind from SE
Gusts 0.0 mph

Today
High -- | Low -- °F
--% Chance of Precip.
Yesterday
High -- | Low -- °F
Precip. -- in
6:09 AM 6:40 PM
Waxing Crescent, 20% visible
Pressure 30.02 in
Visibility 10.0 miles
Clouds Clear
Heat Index 75 °F
Dew Point Not available.
Humidity Not available.
Rainfall 0.00 in
Snow Depth Not available.
UV 0.0 out of 12
Pollen Not available.
Air Quality Not available.
Flu Activity Not available.
METAR TJSJ 300756Z 00000KT 10SM CLR 26/24 A3002 RMK AO2 SLP165 T02610239

More Conditions Fewer Conditions

Pressure 30.02 in
Visibility 10.0 miles
Clouds Clear
Heat Index 75 °F
Dew Point Not available.
Humidity Not available.
Rainfall 0.00 in
Snow Depth Not available.
UV 0.0 out of 12
Pollen Not available.
Air Quality Not available.
Flu Activity Not available.
METAR TJSJ 300756Z 00000KT 10SM CLR 26/24 A3002 RMK AO2 SLP165 T02610239

More Conditions Fewer Conditions

10-Day Weather Forecast

Almanac

Astronomy

Aug. 30, 2014 Rise Set
Actual Time 6:09 AM AST 6:40 PM AST
Civil Twilight 5:47 AM AST 7:02 PM AST
Nautical Twilight 5:21 AM AST 7:28 PM AST
Astronomical Twilight 4:55 AM AST 7:54 PM AST
Moon 10:09 AM AST 9:58 PM AST
Length of Visible Light 13h 15m
Length of Day
12h 30m
Tomorrow will be 0m 59s shorter.
Waxing Crescent, 20% of the Moon is Illuminated
Today
Waxing Crescent
Sep 2
First Quarter
Sep 8
Full
Sep 15
Last Quarter
Sep 24
New

Community

WunderPhotos

Upload Photos

1,748,474 photos uploaded!

Nearby

Snow Depth

Station Depth Elevation
No new snow has been reported.

Earthquake Activity

City Distance Mag. Time & Date
No recent earthquake activity has been reported nearby.
Minimum magnitude displayed is 2.5.

Coastal Water Temperatures

Place Temperature
San Juan, PR 84.9 °F
Mayaguez, PR 84.0 °F
Esperanza, PR 84.0 °F

Nearby Weather Stations